Time;durP1;ratioP1;P1;durP2;ratioP2;P2;SDS_P1;SDS_P2;PMS_P1;PMS_P2;Temp;Humidity;BMP_temperature;BMP_pressure;BME280_temperature;BME280_humidity;BME280_pressure;Samples;Min_cycle;Max_cycle;Signal;HPM_P1;HPM_P2
2021/12/20 00:00:32;;;;;;;;;30.60;28.20;;;;;9.69;63.70;102160.81;2046663;28;46577;-55
2021/12/20 00:01:32;;;;;;;;;25.25;25.00;;;;;9.69;63.62;102159.94;2052229;28;47666;-55
2021/12/20 00:02:33;;;;;;;;;32.50;28.75;;;;;9.68;63.87;102155.50;2053078;28;47251;-54
2021/12/20 00:03:34;;;;;;;;;23.50;23.50;;;;;9.68;63.70;102159.03;2052639;28;48105;-54
2021/12/20 00:04:35;;;;;;;;;26.20;25.40;;;;;9.69;63.87;102154.63;2052414;28;48531;-55
2021/12/20 00:05:36;;;;;;;;;31.25;28.25;;;;;9.69;63.90;102157.28;2054304;28;47023;-57
2021/12/20 00:06:36;;;;;;;;;25.25;23.00;;;;;9.68;63.86;102153.75;2057483;28;48311;-55
2021/12/20 00:07:37;;;;;;;;;22.25;19.50;;;;;9.70;63.75;102157.28;2048724;28;47491;-55
2021/12/20 00:08:37;;;;;;;;;32.00;26.75;;;;;9.70;63.74;102151.97;2052353;28;47056;-56
2021/12/20 00:09:38;;;;;;;;;24.50;23.00;;;;;9.71;63.72;102152.88;2052727;27;47736;-56
2021/12/20 00:10:38;;;;;;;;;28.50;27.50;;;;;9.71;63.68;102153.75;2051965;28;47206;-56
2021/12/20 00:11:39;;;;;;;;;23.75;23.50;;;;;9.71;63.35;102152.88;2047741;28;48107;-56
2021/12/20 00:12:40;;;;;;;;;27.25;27.25;;;;;9.71;63.73;102156.41;2051678;28;48023;-54
2021/12/20 00:13:41;;;;;;;;;29.60;23.60;;;;;9.70;63.68;102148.44;2054005;28;47392;-55
2021/12/20 00:14:41;;;;;;;;;25.50;22.75;;;;;9.70;63.48;102151.97;2057863;28;47267;-55
2021/12/20 00:15:42;;;;;;;;;25.50;23.00;;;;;9.70;63.47;102148.44;2052191;28;47976;-55
2021/12/20 00:16:43;;;;;;;;;28.75;25.25;;;;;9.69;63.50;102141.38;2050894;28;47100;-55
2021/12/20 00:17:44;;;;;;;;;20.50;19.25;;;;;9.69;63.34;102146.66;2053810;28;48389;-53
2021/12/20 00:18:44;;;;;;;;;22.00;21.80;;;;;9.67;63.49;102144.03;2052146;28;48351;-52
2021/12/20 00:19:45;;;;;;;;;25.00;22.50;;;;;9.67;63.46;102140.47;2052815;28;47190;-55
2021/12/20 00:20:45;;;;;;;;;28.75;24.75;;;;;9.66;63.46;102144.00;2046695;28;47094;-56
2021/12/20 00:21:46;;;;;;;;;25.25;25.00;;;;;9.67;63.53;102140.47;2051065;28;47026;-56
2021/12/20 00:22:47;;;;;;;;;18.25;18.25;;;;;9.67;63.71;102140.47;2051232;28;48061;-55
2021/12/20 00:23:47;;;;;;;;;24.00;20.60;;;;;9.67;63.46;102151.97;2052833;28;48388;-54
2021/12/20 00:24:48;;;;;;;;;22.25;19.50;;;;;9.66;63.71;102151.97;2050790;28;47693;-55
2021/12/20 00:25:48;;;;;;;;;23.25;20.50;;;;;9.66;63.49;102142.25;2046544;28;47778;-53
2021/12/20 00:26:49;;;;;;;;;27.75;23.25;;;;;9.66;63.58;102146.66;2049528;28;48059;-55
2021/12/20 00:27:50;;;;;;;;;27.75;24.25;;;;;9.65;63.60;102135.16;2049210;28;47561;-55
2021/12/20 00:28:50;;;;;;;;;21.25;21.25;;;;;9.66;63.58;102139.59;2053663;28;47215;-54
2021/12/20 00:29:50;;;;;;;;;24.75;24.25;;;;;9.67;63.66;102145.78;2048969;28;47335;-53
2021/12/20 00:30:51;;;;;;;;;25.00;22.75;;;;;9.66;63.66;102142.25;2046602;28;48416;-54
2021/12/20 00:31:51;;;;;;;;;25.75;21.75;;;;;9.66;63.55;102147.56;2046565;28;48395;-56
2021/12/20 00:32:52;;;;;;;;;24.25;22.25;;;;;9.66;63.43;102139.59;2051569;28;47218;-54
2021/12/20 00:33:52;;;;;;;;;26.00;25.00;;;;;9.67;63.67;102137.84;2051235;28;48148;-56
2021/12/20 00:34:53;;;;;;;;;23.75;21.50;;;;;9.65;63.69;102137.78;2051168;28;47341;-56
2021/12/20 00:35:54;;;;;;;;;27.50;22.25;;;;;9.65;63.57;102135.16;2053820;28;47152;-55
2021/12/20 00:37:03;;;;;;;;;22.75;21.50;;;;;9.65;63.62;102144.84;2046530;28;48366;-55
2021/12/20 00:40:41;;;;;;;;;14.20;13.00;;;;;9.66;63.66;102139.59;2051587;28;47428;-54
2021/12/20 00:41:42;;;;;;;;;23.00;21.50;;;;;9.65;63.49;102135.16;2052813;28;48296;-54
2021/12/20 00:42:43;;;;;;;;;24.50;21.25;;;;;9.65;63.67;102137.78;2050873;28;47395;-54
2021/12/20 00:43:44;;;;;;;;;22.00;21.60;;;;;9.65;63.69;102132.50;2051834;28;46272;-54
2021/12/20 00:44:44;;;;;;;;;22.75;22.25;;;;;9.66;63.83;102130.75;2050286;28;47323;-54
2021/12/20 00:45:44;;;;;;;;;21.75;19.50;;;;;9.65;63.60;102132.50;2050185;28;47808;-58
2021/12/20 00:46:45;;;;;;;;;23.75;23.50;;;;;9.66;63.89;102129.00;2056071;28;47343;-55
2021/12/20 00:47:46;;;;;;;;;18.50;18.50;;;;;9.65;63.44;102135.16;2052292;28;48150;-55
2021/12/20 00:48:46;;;;;;;;;23.25;23.00;;;;;9.66;63.53;102136.06;2054902;28;47508;-53
2021/12/20 00:49:47;;;;;;;;;23.25;20.50;;;;;9.66;63.49;102131.66;2051536;28;48522;-56
2021/12/20 00:50:47;;;;;;;;;18.25;18.25;;;;;9.67;63.44;102135.19;2051432;28;46859;-56
2021/12/20 00:51:48;;;;;;;;;24.50;22.25;;;;;9.66;63.65;102136.94;2050168;28;47179;-54
2021/12/20 00:52:49;;;;;;;;;24.50;23.50;;;;;9.68;63.64;102136.94;2049179;28;46938;-54
2021/12/20 00:53:50;;;;;;;;;24.60;20.40;;;;;9.66;63.33;102134.28;2052987;28;47372;-56
2021/12/20 00:54:51;;;;;;;;;22.50;22.50;;;;;9.65;63.57;102132.50;2071046;27;45436;-53
2021/12/20 00:55:51;;;;;;;;;24.60;22.60;;;;;9.66;63.28;102129.00;2050516;28;48127;-55
2021/12/20 00:56:52;;;;;;;;;25.75;23.00;;;;;9.66;63.42;102129.00;2048216;28;47719;-53
2021/12/20 00:57:54;;;;;;;;;21.50;19.25;;;;;9.65;63.26;102137.78;2053367;28;47281;-53
2021/12/20 00:58:55;;;;;;;;;23.80;23.00;;;;;9.64;63.55;102136.03;2052695;28;46173;-54
2021/12/20 00:59:55;;;;;;;;;20.00;19.50;;;;;9.63;63.63;102131.59;2052880;28;47225;-53
2021/12/20 01:00:58;;;;;;;;;18.50;18.00;;;;;9.63;63.43;102136.91;2053102;28;47781;-54
2021/12/20 01:01:58;;;;;;;;;22.80;21.80;;;;;9.65;63.29;102134.25;2052932;28;47662;-53
2021/12/20 01:03:00;;;;;;;;;16.00;13.50;;;;;9.64;63.27;102129.84;2052392;28;47494;-54
2021/12/20 01:04:00;;;;;;;;;21.60;19.80;;;;;9.62;63.34;102128.94;2050684;28;48384;-53
2021/12/20 01:05:02;;;;;;;;;22.50;20.25;;;;;9.61;63.33;102127.19;2054980;28;47055;-55
2021/12/20 01:06:04;;;;;;;;;23.20;20.20;;;;;9.60;63.53;102134.25;2050754;28;47224;-54
2021/12/20 01:07:04;;;;;;;;;23.20;20.80;;;;;9.59;63.44;102118.34;2055666;28;46243;-54
2021/12/20 01:08:07;;;;;;;;;24.00;21.00;;;;;9.58;63.33;102122.75;2051466;28;47477;-53
2021/12/20 01:09:08;;;;;;;;;21.20;20.00;;;;;9.59;63.66;102118.34;2050554;28;48303;-57
2021/12/20 01:10:09;;;;;;;;;23.50;22.50;;;;;9.59;63.45;102110.38;2055096;28;48011;-55
2021/12/20 01:11:19;;;;;;;;;23.40;23.40;;;;;9.59;63.26;102115.69;2046731;28;47230;-55
2021/12/20 01:12:20;;;;;;;;;25.60;24.00;;;;;9.58;63.33;102112.16;2049854;28;47285;-54
2021/12/20 01:13:24;;;;;;;;;22.00;21.00;;;;;9.59;63.44;102110.38;2053581;28;48334;-54
2021/12/20 01:14:27;;;;;;;;;20.60;18.80;;;;;9.58;63.39;102114.81;2049150;28;47471;-56
2021/12/20 01:15:47;;;;;;;;;23.60;21.60;;;;;9.58;63.46;102113.94;2052765;28;48203;-55
2021/12/20 01:16:49;;;;;;;;;20.20;19.00;;;;;9.58;63.51;102113.94;2053242;28;48369;-54
2021/12/20 01:17:50;;;;;;;;;25.40;23.00;;;;;9.58;63.31;102121.88;2056754;28;48372;-54
2021/12/20 01:18:51;;;;;;;;;18.00;17.60;;;;;9.56;63.21;102110.38;2050184;28;48151;-55
2021/12/20 01:19:51;;;;;;;;;24.50;21.75;;;;;9.56;63.52;102111.28;2052260;28;46878;-56
2021/12/20 01:20:52;;;;;;;;;25.25;25.00;;;;;9.55;63.26;102111.25;2053012;28;47315;-55
2021/12/20 01:21:52;;;;;;;;;23.00;22.00;;;;;9.55;63.61;102108.63;2048663;28;46647;-53
2021/12/20 01:22:53;;;;;;;;;19.75;18.00;;;;;9.55;63.52;102111.25;2049464;28;48627;-56
2021/12/20 01:23:54;;;;;;;;;21.25;20.00;;;;;9.55;63.70;102104.19;2049902;28;48009;-55
2021/12/20 01:24:55;;;;;;;;;20.80;20.20;;;;;9.56;63.86;102108.63;2052981;28;48467;-51
2021/12/20 01:25:55;;;;;;;;;26.75;26.50;;;;;9.56;63.59;102102.44;2053171;28;47713;-53
2021/12/20 01:26:56;;;;;;;;;21.50;20.75;;;;;9.56;63.59;102099.78;2053608;28;47182;-54
2021/12/20 01:27:56;;;;;;;;;20.00;19.25;;;;;9.56;63.59;102103.31;2052017;28;47911;-53
2021/12/20 01:28:57;;;;;;;;;26.00;21.75;;;;;9.56;63.63;102103.31;2053110;28;48530;-54
2021/12/20 01:29:57;;;;;;;;;26.50;23.25;;;;;9.56;63.31;102098.03;2049589;28;47238;-54
2021/12/20 01:30:58;;;;;;;;;23.75;23.75;;;;;9.57;63.33;102098.91;2052268;28;47736;-55
2021/12/20 01:31:58;;;;;;;;;28.00;23.50;;;;;9.58;63.53;102105.97;2051517;28;45511;-54
2021/12/20 01:32:58;;;;;;;;;23.50;20.25;;;;;9.57;63.56;102101.56;2051885;28;47192;-54
2021/12/20 01:33:59;;;;;;;;;22.00;22.00;;;;;9.59;63.53;102110.38;2053724;28;45509;-54
2021/12/20 01:34:59;;;;;;;;;26.50;23.00;;;;;9.58;63.42;102106.84;2048987;28;48227;-56
2021/12/20 01:36:00;;;;;;;;;25.25;24.25;;;;;9.58;63.45;102109.50;2052537;28;48082;-55
2021/12/20 01:37:00;;;;;;;;;21.75;21.75;;;;;9.59;63.55;102105.09;2057359;28;45990;-55
2021/12/20 01:38:01;;;;;;;;;24.25;23.75;;;;;9.59;63.38;102105.97;2051909;28;47551;-55
2021/12/20 01:39:01;;;;;;;;;22.00;17.75;;;;;9.60;63.56;102107.75;2050484;28;46297;-55
2021/12/20 01:40:05;;;;;;;;;26.00;24.00;;;;;9.61;63.45;102108.63;2045717;28;48163;-55
2021/12/20 01:41:08;;;;;;;;;26.00;25.00;;;;;9.60;63.25;102096.25;2051906;28;47314;-56
2021/12/20 01:42:08;;;;;;;;;21.60;21.00;;;;;9.60;63.63;102107.75;2049445;28;47417;-55
2021/12/20 01:43:11;;;;;;;;;23.75;22.75;;;;;9.61;63.41;102098.03;2051675;28;48004;-55
2021/12/20 01:44:13;;;;;;;;;23.00;21.80;;;;;9.61;63.37;102111.28;2057607;28;47347;-55
2021/12/20 01:45:20;;;;;;;;;24.20;23.00;;;;;9.61;63.32;102108.63;2057360;28;46911;-54
2021/12/20 01:46:22;;;;;;;;;20.20;19.80;;;;;9.62;63.34;102102.44;2053286;28;47519;-54
2021/12/20 01:47:27;;;;;;;;;25.60;25.00;;;;;9.61;63.21;102101.56;2054996;28;48229;-55
2021/12/20 01:48:29;;;;;;;;;25.40;24.80;;;;;9.63;63.35;102106.88;2050223;28;47357;-54
2021/12/20 01:49:38;;;;;;;;;25.00;23.20;;;;;9.62;63.20;102105.97;2050456;28;46328;-53
2021/12/20 01:52:01;;;;;;;;;24.40;24.40;;;;;9.63;63.40;102096.25;2059007;28;46098;-55
2021/12/20 01:53:02;;;;;;;;;30.80;30.00;;;;;9.65;63.38;102097.16;2052124;28;48430;-55
2021/12/20 01:54:03;;;;;;;;;27.40;24.60;;;;;9.65;63.17;102100.69;2065119;28;46355;-55
2021/12/20 01:55:03;;;;;;;;;25.40;24.00;;;;;9.65;63.40;102102.44;2067673;27;47314;-55
2021/12/20 01:56:04;;;;;;;;;29.00;27.00;;;;;9.66;63.22;102104.25;2048007;28;47156;-55
2021/12/20 01:57:05;;;;;;;;;30.00;30.00;;;;;9.65;63.17;102099.81;2050048;28;48153;-55
2021/12/20 01:58:06;;;;;;;;;27.50;26.75;;;;;9.65;63.00;102092.72;2053082;28;47377;-54
2021/12/20 01:59:08;;;;;;;;;36.75;30.50;;;;;9.65;63.05;102098.03;2052239;28;47659;-54
2021/12/20 02:00:21;;;;;;;;;24.40;24.20;;;;;9.65;63.12;102094.50;2050440;28;47322;-53
2021/12/20 02:01:23;;;;;;;;;29.40;26.20;;;;;9.66;63.03;102096.31;2045923;28;47638;-52
2021/12/20 02:02:23;;;;;;;;;25.20;24.00;;;;;9.64;63.05;102085.66;2051523;28;47383;-55
2021/12/20 02:03:24;;;;;;;;;24.75;23.75;;;;;9.64;63.04;102084.78;2048679;28;47622;-52
2021/12/20 02:04:26;;;;;;;;;28.50;27.25;;;;;9.64;63.06;102095.38;2052248;28;47202;-52
2021/12/20 02:06:40;;;;;;;;;34.40;32.40;;;;;9.64;63.20;102090.09;2046951;28;48202;-54
2021/12/20 02:08:00;;;;;;;;;33.00;29.80;;;;;9.64;63.04;102085.66;2047693;28;47188;-55
2021/12/20 02:09:07;;;;;;;;;33.60;32.00;;;;;9.64;63.12;102093.63;2048862;28;47943;-53
2021/12/20 02:10:08;;;;;;;;;32.40;32.20;;;;;9.64;63.12;102090.09;2050796;28;46990;-55
2021/12/20 02:11:10;;;;;;;;;34.00;30.00;;;;;9.65;63.19;102086.53;2052795;28;47285;-53
2021/12/20 02:12:10;;;;;;;;;33.00;28.20;;;;;9.65;63.09;102089.19;2057046;28;47077;-53
2021/12/20 02:13:17;;;;;;;;;34.50;33.25;;;;;9.65;62.90;102090.09;2051244;28;47307;-54
2021/12/20 02:14:19;;;;;;;;;28.80;28.40;;;;;9.64;62.77;102083.00;2058889;28;47806;-53
2021/12/20 02:15:19;;;;;;;;;30.20;29.40;;;;;9.65;62.95;102086.53;2051767;28;47904;-51
2021/12/20 02:16:20;;;;;;;;;29.75;26.75;;;;;9.64;62.73;102090.97;2055854;27;46197;-53
2021/12/20 02:17:21;;;;;;;;;30.60;28.80;;;;;9.63;63.05;102083.00;2053470;28;48200;-56
2021/12/20 02:18:21;;;;;;;;;34.25;31.00;;;;;9.63;62.94;102088.31;2053806;28;48031;-55
2021/12/20 02:19:22;;;;;;;;;34.00;31.00;;;;;9.62;62.92;102079.47;2053901;28;48161;-55
2021/12/20 02:20:28;;;;;;;;;34.25;31.75;;;;;9.62;62.89;102089.19;2053011;28;45965;-56
2021/12/20 02:21:29;;;;;;;;;36.80;32.60;;;;;9.61;62.71;102080.34;2054312;28;47802;-55
2021/12/20 02:22:30;;;;;;;;;33.50;30.50;;;;;9.61;62.75;102082.13;2054171;28;47214;-54
2021/12/20 02:23:31;;;;;;;;;36.00;33.00;;;;;9.61;62.81;102083.00;2053036;28;48081;-57
2021/12/20 02:24:31;;;;;;;;;36.80;32.40;;;;;9.60;62.62;102083.00;2053976;28;47124;-54
2021/12/20 02:25:32;;;;;;;;;33.00;31.50;;;;;9.59;62.84;102082.13;2049420;28;45578;-55
2021/12/20 02:26:33;;;;;;;;;37.75;34.50;;;;;9.59;62.93;102084.78;2059072;28;47246;-54
2021/12/20 02:27:34;;;;;;;;;23.40;22.60;;;;;9.58;62.91;102088.31;2054399;28;47836;-53
2021/12/20 02:28:42;;;;;;;;;38.00;33.75;;;;;9.59;62.68;102087.41;2054717;28;47665;-54
2021/12/20 02:29:57;;;;;;;;;35.40;33.60;;;;;9.59;62.58;102094.50;2051748;28;47637;-56
2021/12/20 02:37:51;;;;;;;;;35.00;33.60;;;;;9.57;62.85;102086.53;2042963;28;47314;-53
2021/12/20 02:38:52;;;;;;;;;36.25;34.25;;;;;9.57;62.45;102081.22;2044001;28;47930;-55
2021/12/20 02:39:53;;;;;;;;;32.25;30.50;;;;;9.57;62.89;102075.06;2044892;28;48468;-54
2021/12/20 02:41:10;;;;;;;;;38.20;34.20;;;;;9.56;62.79;102076.81;2050519;28;46337;-55
2021/12/20 02:42:15;;;;;;;;;41.20;35.40;;;;;9.57;62.90;102081.22;2047359;28;48068;-54
2021/12/20 02:43:18;;;;;;;;;40.60;35.80;;;;;9.57;62.80;102078.59;2053079;28;48968;-57
2021/12/20 02:44:20;;;;;;;;;38.80;35.20;;;;;9.59;62.99;102081.25;2058036;28;46904;-55
2021/12/20 02:45:22;;;;;;;;;39.40;34.20;;;;;9.60;62.98;102077.72;2054970;28;48649;-54
2021/12/20 02:47:36;;;;;;;;;32.60;30.60;;;;;9.60;62.97;102075.94;2046565;28;47443;-54
2021/12/20 02:48:36;;;;;;;;;38.20;35.60;;;;;9.61;62.87;102079.47;2051986;28;48418;-52
2021/12/20 02:49:37;;;;;;;;;32.00;29.75;;;;;9.62;62.84;102074.19;2049668;28;47790;-54
2021/12/20 02:50:37;;;;;;;;;41.25;35.75;;;;;9.61;62.99;102072.41;2053938;28;47297;-53
2021/12/20 02:51:39;;;;;;;;;39.25;35.50;;;;;9.63;63.01;102070.66;2052043;28;48603;-54
2021/12/20 02:52:40;;;;;;;;;32.00;29.20;;;;;9.63;62.95;102064.47;2059452;28;47675;-56
2021/12/20 02:53:41;;;;;;;;;41.60;34.00;;;;;9.63;63.01;102070.66;2049600;28;47936;-55
2021/12/20 02:54:41;;;;;;;;;48.50;36.25;;;;;9.65;62.80;102074.19;2053521;28;47342;-54
2021/12/20 02:55:42;;;;;;;;;36.25;34.00;;;;;9.66;62.95;102072.44;2054141;27;48355;-54
2021/12/20 02:56:43;;;;;;;;;38.50;34.00;;;;;9.65;62.82;102074.19;2053905;28;48160;-55
2021/12/20 02:57:43;;;;;;;;;42.00;36.40;;;;;9.66;62.83;102069.78;2059508;28;47717;-55
2021/12/20 02:58:44;;;;;;;;;36.50;32.75;;;;;9.66;62.70;102073.34;2052532;28;48036;-54
2021/12/20 02:59:44;;;;;;;;;41.75;36.25;;;;;9.67;62.74;102082.16;2052452;28;48312;-54
2021/12/20 03:00:44;;;;;;;;;42.00;35.25;;;;;9.66;62.82;102075.97;2059196;27;47664;-54
2021/12/20 03:01:49;;;;;;;;;39.00;34.75;;;;;9.65;62.77;102076.81;2049589;28;48108;-53
2021/12/20 03:02:49;;;;;;;;;40.00;35.80;;;;;9.65;62.95;102071.53;2057159;28;47376;-53
2021/12/20 03:03:52;;;;;;;;;42.00;34.00;;;;;9.64;62.82;102072.41;2049294;28;47066;-55
2021/12/20 03:04:53;;;;;;;;;34.40;30.40;;;;;9.64;62.73;102069.75;2052692;28;48123;-54
2021/12/20 03:05:53;;;;;;;;;39.25;34.25;;;;;9.64;62.60;102074.19;2049939;28;47199;-54
2021/12/20 03:07:00;;;;;;;;;36.00;34.00;;;;;9.64;62.82;102067.09;2047594;28;47903;-56
2021/12/20 03:08:01;;;;;;;;;27.00;26.80;;;;;9.64;62.77;102063.56;2051700;28;49787;-53
2021/12/20 03:09:04;;;;;;;;;37.60;35.40;;;;;9.64;62.79;102066.22;2050217;28;47861;-52
2021/12/20 03:10:05;;;;;;;;;37.20;34.00;;;;;9.63;62.61;102069.75;2052367;28;48165;-57
2021/12/20 03:11:05;;;;;;;;;35.60;32.40;;;;;9.62;62.70;102063.56;2052690;28;48723;-53
2021/12/20 03:12:09;;;;;;;;;40.00;34.50;;;;;9.64;62.87;102067.09;2061638;28;45512;-55
2021/12/20 03:13:10;;;;;;;;;33.40;32.80;;;;;9.64;62.67;102059.16;2050627;28;49883;-53
2021/12/20 03:14:18;;;;;;;;;39.60;35.60;;;;;9.63;62.92;102060.03;2052030;28;47106;-56
2021/12/20 03:15:23;;;;;;;;;38.00;34.20;;;;;9.65;62.72;102065.34;2051952;28;46799;-54
2021/12/20 03:16:23;;;;;;;;;29.80;29.80;;;;;9.66;62.79;102056.53;2053634;28;45326;-56
2021/12/20 03:17:24;;;;;;;;;14.75;10.50;;;;;9.66;62.65;102051.25;2048696;28;48123;-55
2021/12/20 03:18:24;;;;;;;;;38.00;33.00;;;;;9.66;62.66;102051.25;2052974;28;46668;-56
2021/12/20 03:19:26;;;;;;;;;34.50;33.00;;;;;9.65;62.70;102060.94;2053593;28;47154;-54
2021/12/20 03:20:27;;;;;;;;;30.80;28.80;;;;;9.66;62.54;102056.53;2053379;28;48050;-54
2021/12/20 03:21:27;;;;;;;;;33.00;30.75;;;;;9.65;62.70;102052.09;2059885;28;46106;-55
2021/12/20 03:22:27;;;;;;;;;38.00;31.75;;;;;9.64;62.69;102051.22;2052556;28;48994;-56
2021/12/20 03:23:28;;;;;;;;;30.00;29.25;;;;;9.65;62.63;102054.75;2053507;28;48266;-56
2021/12/20 03:24:28;;;;;;;;;27.50;26.75;;;;;9.65;62.77;102049.44;2050391;28;47102;-56
2021/12/20 03:25:29;;;;;;;;;33.00;30.50;;;;;9.65;62.58;102050.31;2053399;28;47192;-56
2021/12/20 03:26:29;;;;;;;;;35.25;33.00;;;;;9.64;62.54;102048.56;2046367;28;48138;-55
2021/12/20 03:27:30;;;;;;;;;34.00;31.75;;;;;9.64;62.38;102045.91;2053218;28;45260;-55
2021/12/20 03:28:30;;;;;;;;;38.00;32.75;;;;;9.63;62.32;102046.78;2054720;28;48289;-55
2021/12/20 03:29:31;;;;;;;;;34.75;31.25;;;;;9.62;62.65;102044.13;2046971;28;46229;-56
2021/12/20 03:30:31;;;;;;;;;42.75;37.00;;;;;9.62;62.71;102046.78;2053249;28;47303;-54
2021/12/20 03:31:32;;;;;;;;;38.00;32.50;;;;;9.62;62.49;102049.44;2054473;28;47299;-57
2021/12/20 03:32:32;;;;;;;;;44.25;37.50;;;;;9.60;62.42;102049.44;2051354;28;47406;-55
2021/12/20 03:33:33;;;;;;;;;34.00;33.00;;;;;9.59;62.45;102055.63;2056278;28;47344;-53
2021/12/20 03:34:33;;;;;;;;;34.50;31.75;;;;;9.60;62.49;102051.19;2047936;28;48424;-54
2021/12/20 03:35:34;;;;;;;;;35.50;32.50;;;;;9.59;62.66;102050.31;2048443;28;46219;-54
2021/12/20 03:36:35;;;;;;;;;42.00;33.50;;;;;9.59;62.50;102045.03;2051598;28;48020;-55
2021/12/20 03:37:35;;;;;;;;;31.20;31.00;;;;;9.59;62.55;102044.13;2058139;28;47420;-56
2021/12/20 03:38:36;;;;;;;;;40.00;34.50;;;;;9.57;62.37;102036.19;2052658;28;48146;-55
2021/12/20 03:39:36;;;;;;;;;33.50;31.25;;;;;9.57;62.73;102036.19;2050258;28;48233;-54
2021/12/20 03:40:37;;;;;;;;;32.75;31.75;;;;;9.58;62.52;102043.25;2054682;28;47967;-53
2021/12/20 03:41:38;;;;;;;;;35.75;34.25;;;;;9.59;62.54;102045.03;2052480;28;48130;-54
2021/12/20 03:42:43;;;;;;;;;36.00;30.60;;;;;9.59;62.44;102041.47;2053981;28;47448;-54
2021/12/20 03:43:43;;;;;;;;;39.40;34.00;;;;;9.58;62.44;102045.91;2048545;28;48296;-52
2021/12/20 03:44:45;;;;;;;;;33.00;31.50;;;;;9.56;62.56;102045.00;2053133;28;47154;-55
2021/12/20 03:45:49;;;;;;;;;39.80;34.00;;;;;9.57;62.57;102044.13;2051455;28;48205;-54
2021/12/20 03:46:50;;;;;;;;;30.80;28.20;;;;;9.57;62.44;102038.84;2053085;28;47270;-55
2021/12/20 03:47:50;;;;;;;;;36.50;32.25;;;;;9.56;62.28;102039.72;2051614;28;47229;-56
2021/12/20 03:48:51;;;;;;;;;33.00;28.50;;;;;9.57;62.42;102033.53;2051554;28;46155;-53
2021/12/20 03:49:51;;;;;;;;;31.00;31.00;;;;;9.57;62.42;102038.84;2050430;28;47057;-54
2021/12/20 03:50:53;;;;;;;;;33.50;32.75;;;;;9.56;62.40;102030.88;2051757;28;47144;-54
2021/12/20 03:51:53;;;;;;;;;30.60;30.00;;;;;9.55;62.31;102040.59;2051468;28;46373;-54
2021/12/20 03:52:54;;;;;;;;;32.00;30.50;;;;;9.55;61.93;102039.72;2051356;28;48542;-54
2021/12/20 03:53:54;;;;;;;;;40.00;34.00;;;;;9.54;62.47;102033.53;2053683;28;48077;-54
2021/12/20 03:54:55;;;;;;;;;33.50;31.25;;;;;9.52;62.36;102032.63;2051294;28;47227;-53
2021/12/20 03:55:55;;;;;;;;;34.00;33.00;;;;;9.53;62.26;102031.75;2052561;28;47348;-55
2021/12/20 03:56:56;;;;;;;;;35.25;33.50;;;;;9.54;62.23;102032.66;2054671;28;47567;-53
2021/12/20 03:57:56;;;;;;;;;29.25;27.25;;;;;9.54;62.26;102035.28;2050235;28;46866;-54
2021/12/20 03:58:57;;;;;;;;;36.00;33.25;;;;;9.53;62.43;102034.41;2053358;28;47248;-53
2021/12/20 03:59:57;;;;;;;;;29.25;27.75;;;;;9.54;62.27;102033.53;2055656;28;48086;-54
2021/12/20 04:01:00;;;;;;;;;33.25;30.00;;;;;9.54;62.58;102036.19;2050222;28;46997;-54
2021/12/20 04:02:01;;;;;;;;;33.80;29.00;;;;;9.54;62.49;102040.59;2050807;28;48319;-54
2021/12/20 04:03:07;;;;;;;;;31.25;29.75;;;;;9.53;62.44;102041.44;2053472;28;47518;-55
2021/12/20 04:04:08;;;;;;;;;33.60;29.60;;;;;9.53;62.24;102045.00;2054309;28;48789;-55
2021/12/20 04:05:09;;;;;;;;;40.50;31.25;;;;;9.52;62.07;102043.22;2054412;28;47000;-55
2021/12/20 04:06:14;;;;;;;;;29.60;26.00;;;;;9.52;62.31;102034.38;2053005;28;47335;-53
2021/12/20 04:07:14;;;;;;;;;35.20;33.40;;;;;9.52;62.54;102040.56;2060165;27;47364;-52
2021/12/20 04:08:14;;;;;;;;;32.75;30.50;;;;;9.52;62.25;102040.56;2051437;28;48149;-53
2021/12/20 04:09:16;;;;;;;;;41.25;35.00;;;;;9.52;62.31;102037.91;2051776;28;48099;-55
2021/12/20 04:10:17;;;;;;;;;37.40;32.80;;;;;9.52;62.36;102037.91;2051629;28;47418;-55
2021/12/20 04:11:17;;;;;;;;;34.60;30.60;;;;;9.53;62.33;102038.78;2054431;28;48489;-54
2021/12/20 04:12:18;;;;;;;;;33.25;28.50;;;;;9.53;62.51;102039.72;2052476;28;47973;-56
2021/12/20 04:13:18;;;;;;;;;32.00;30.25;;;;;9.54;62.35;102032.66;2051722;28;46941;-54
2021/12/20 04:14:18;;;;;;;;;34.50;32.75;;;;;9.54;62.58;102033.53;2051915;28;47915;-55
2021/12/20 04:15:19;;;;;;;;;38.00;33.00;;;;;9.53;62.49;102034.41;2054352;28;46897;-54
2021/12/20 04:16:19;;;;;;;;;37.25;32.25;;;;;9.53;62.57;102039.72;2051267;28;48156;-51
2021/12/20 04:17:20;;;;;;;;;41.25;34.50;;;;;9.53;62.41;102036.16;2053658;28;47758;-52
2021/12/20 04:18:25;;;;;;;;;39.00;32.75;;;;;9.54;62.31;102038.84;2052564;28;48395;-54
2021/12/20 04:19:26;;;;;;;;;39.60;33.20;;;;;9.54;62.20;102038.84;2052959;28;48166;-54
2021/12/20 04:20:26;;;;;;;;;35.00;33.50;;;;;9.54;62.47;102037.94;2048657;28;48039;-54
2021/12/20 04:21:27;;;;;;;;;37.00;32.75;;;;;9.54;62.38;102037.94;2053371;28;47027;-56
2021/12/20 04:22:27;;;;;;;;;34.25;32.25;;;;;9.55;62.66;102039.72;2050599;28;47831;-55
2021/12/20 04:23:28;;;;;;;;;38.75;33.50;;;;;9.56;62.42;102044.13;2050006;28;47996;-54
2021/12/20 04:24:28;;;;;;;;;42.50;34.00;;;;;9.56;62.47;102041.47;2053615;28;47674;-54
2021/12/20 04:25:28;;;;;;;;;34.00;33.50;;;;;9.57;62.45;102043.25;2052633;28;48151;-55
2021/12/20 04:26:29;;;;;;;;;40.50;36.25;;;;;9.56;62.40;102047.66;2050577;28;46954;-56
2021/12/20 04:27:30;;;;;;;;;42.50;35.75;;;;;9.57;62.28;102045.91;2046052;28;46884;-53
2021/12/20 04:28:30;;;;;;;;;42.50;35.75;;;;;9.56;62.28;102044.13;2052998;28;46879;-54
2021/12/20 04:29:31;;;;;;;;;40.25;35.25;;;;;9.56;62.57;102049.44;2054141;28;47201;-52
2021/12/20 04:30:33;;;;;;;;;41.50;36.50;;;;;9.56;62.63;102057.38;2053924;28;46386;-54
2021/12/20 04:31:35;;;;;;;;;39.40;34.60;;;;;9.56;62.59;102050.31;2049841;28;47571;-54
2021/12/20 04:32:42;;;;;;;;;36.20;33.60;;;;;9.57;62.58;102044.13;2051466;28;48286;-56
2021/12/20 04:33:43;;;;;;;;;42.40;35.80;;;;;9.57;62.56;102049.44;2053893;28;48184;-54
2021/12/20 04:34:43;;;;;;;;;41.00;36.00;;;;;9.57;62.50;102040.59;2048933;28;48290;-54
2021/12/20 04:35:43;;;;;;;;;43.75;35.50;;;;;9.57;62.63;102035.31;2053808;28;48025;-54
2021/12/20 04:36:44;;;;;;;;;40.00;33.00;;;;;9.58;62.38;102042.38;2060262;28;47320;-51
2021/12/20 04:37:47;;;;;;;;;34.20;30.20;;;;;9.58;62.34;102034.41;2054239;28;48214;-52
2021/12/20 04:38:47;;;;;;;;;36.00;32.80;;;;;9.57;62.58;102044.13;2051657;28;47495;-54
2021/12/20 04:39:48;;;;;;;;;43.50;34.75;;;;;9.57;62.43;102044.13;2059588;27;45279;-55
2021/12/20 04:40:49;;;;;;;;;37.25;33.00;;;;;9.57;62.30;102044.13;2054114;28;47224;-51
2021/12/20 04:41:49;;;;;;;;;36.25;32.50;;;;;9.57;62.46;102044.13;2053619;28;48410;-51
2021/12/20 04:42:56;;;;;;;;;35.75;34.00;;;;;9.57;62.36;102043.25;2052312;28;48137;-54
2021/12/20 04:43:56;;;;;;;;;40.40;34.20;;;;;9.56;62.63;102038.84;2051773;28;48061;-55
2021/12/20 04:44:57;;;;;;;;;35.25;32.75;;;;;9.55;62.42;102035.28;2054350;28;47407;-54
2021/12/20 04:45:57;;;;;;;;;34.25;30.75;;;;;9.55;62.33;102035.28;2053799;28;48763;-52
2021/12/20 04:46:57;;;;;;;;;35.75;33.50;;;;;9.56;62.41;102036.19;2049870;28;47640;-53
2021/12/20 04:47:59;;;;;;;;;38.50;34.50;;;;;9.56;62.44;102037.06;2051602;28;47064;-53
2021/12/20 04:48:59;;;;;;;;;36.20;32.00;;;;;9.56;62.40;102038.84;2051122;28;48438;-54
2021/12/20 04:50:00;;;;;;;;;41.50;36.00;;;;;9.56;62.50;102034.41;2055100;28;48099;-53
2021/12/20 04:51:00;;;;;;;;;33.75;30.75;;;;;9.55;62.43;102030.00;2052699;28;47317;-54
2021/12/20 04:52:01;;;;;;;;;36.00;33.00;;;;;9.56;62.47;102030.88;2049854;28;48458;-53
2021/12/20 04:53:02;;;;;;;;;34.00;30.75;;;;;9.55;62.32;102032.66;2052666;28;47036;-54
2021/12/20 04:54:03;;;;;;;;;34.40;31.40;;;;;9.56;62.29;102029.13;2051588;28;47431;-53
2021/12/20 04:55:04;;;;;;;;;34.75;32.50;;;;;9.56;62.33;102042.38;2052474;28;45415;-55
2021/12/20 04:56:05;;;;;;;;;31.00;27.40;;;;;9.56;62.23;102039.72;2051447;28;47413;-54